Krymsk — A8CE4 — position and weather

sailwx.info

Track history (hours):
 
Tides and Currents Weather Stations Pressure Air Temp Water Temp Dewpoint Dewpoint Depression Visibility Wind Speed Wind Dir Waves Ship Positions

Krymsk

Last reported at 2017-Jul-06 22:15 UTC. Time now 2017-Aug-21 08:20 UTC.
Position N 38°50' W 075°05'.
Warning: this ship's position is 45 days out of date.

Length 250 m; draft 8.5 m.

Type: Ship. MMSI: 636011914.

Date/timePositionNaut miles runAvg speedWind from/ knotsBaromVisibWave heightAir tempDewpointWater temp
2017-Jul-06 22:15N 38°50' W 075°05'61 1.6
2017-Jul-05 08:30N 39°51' W 075°16'0 0.0
2017-Jul-05 08:00N 39°51' W 075°16'0 0.0
2017-Jul-05 07:30N 39°51' W 075°16'0 0.0
2017-Jul-05 07:00N 39°51' W 075°16'0 0.0
2017-Jul-05 06:30N 39°51' W 075°16'0 0.0
2017-Jul-05 06:00N 39°51' W 075°16'0 0.0
2017-Jul-05 05:30N 39°51' W 075°16'0 0.0
2017-Jul-05 05:00N 39°51' W 075°16'0 0.5
2017-Jul-05 04:30N 39°51' W 075°17'2 4.1
2017-Jul-05 04:00N 39°51' W 075°19'3 5.3
2017-Jul-05 03:31N 39°50' W 075°22'4 7.6
2017-Jul-05 03:00N 39°48' W 075°26'5 9.4
2017-Jul-05 02:30N 39°44' W 075°30'510.0
2017-Jul-05 02:00N 39°39' W 075°33'4 9.0
2017-Jul-05 01:31N 39°35' W 075°33'510.7
2017-Jul-05 01:01N 39°29' W 075°34'510.5
2017-Jul-05 00:30N 39°25' W 075°31'611.7
2017-Jul-05 00:00N 39°20' W 075°26'612.2
2017-Jul-04 23:31N 39°16' W 075°20'713.2
2017-Jul-04 23:00N 39°10' W 075°16'613.0
2017-Jul-04 22:30N 39°05' W 075°11'713.4
2017-Jul-04 22:00N 38°59' W 075°08'713.5
2017-Jul-04 21:30N 38°53' W 075°04'510.0
2017-Jul-04 21:00N 38°48' W 075°02'22 8.5
2017-Jul-04 18:22N 38°31' W 074°42'4 9.9
2017-Jul-04 17:58N 38°29' W 074°39'2 4.2
2017-Jul-04 17:26N 38°29' W 074°36'0 0.2
2017-Jul-04 16:59N 38°29' W 074°36'0 0.0
2017-Jul-04 13:05N 38°29' W 074°36'0 0.0
2017-Jul-04 12:59N 38°29' W 074°36'0 0.0
2017-Jul-04 12:23N 38°29' W 074°36'0 0.1
2017-Jul-04 11:59N 38°29' W 074°36'0 0.2
2017-Jul-04 11:29N 38°29' W 074°36'0 0.0
2017-Jul-04 10:53N 38°29' W 074°36'0 0.0
2017-Jul-04 10:29N 38°29' W 074°36'0 0.1
2017-Jul-04 09:59N 38°29' W 074°36'0 0.0
2017-Jul-04 09:29N 38°29' W 074°36'0 0.0
2017-Jul-04 08:59N 38°29' W 074°36'0 0.0
2017-Jul-04 08:29N 38°29' W 074°36'0 0.0
2017-Jul-04 07:59N 38°29' W 074°36'0 0.1
2017-Jul-04 07:29N 38°29' W 074°36'0 0.9
2017-Jul-04 07:01N 38°29' W 074°36'3 5.3
2017-Jul-04 06:30N 38°28' W 074°33'510.4
2017-Jul-04 06:00N 38°25' W 074°28'612.9
2017-Jul-04 05:30N 38°20' W 074°23'713.1
2017-Jul-04 05:00N 38°15' W 074°17'  
Track history (hours):
 
Tides and Currents Weather Stations Pressure Air Temp Water Temp Dewpoint Dewpoint Depression Visibility Wind Speed Wind Dir Waves Ship Positions

Krymsk

Last reported at 2017-Jul-06 22:15 UTC. Time now 2017-Aug-21 08:20 UTC.
Position N 38°50' W 075°05'.
Warning: this ship's position is 45 days out of date.

Length 250 m; draft 8.5 m.

Type: Ship. MMSI: 636011914.

Date/timePositionNaut miles runAvg speedWind from/ knotsBaromVisibWave heightAir tempDewpointWater temp
2017-Jul-06 22:15N 38°50' W 075°05'61 1.6
2017-Jul-05 08:30N 39°51' W 075°16'0 0.0
2017-Jul-05 08:00N 39°51' W 075°16'0 0.0
2017-Jul-05 07:30N 39°51' W 075°16'0 0.0
2017-Jul-05 07:00N 39°51' W 075°16'0 0.0
2017-Jul-05 06:30N 39°51' W 075°16'0 0.0
2017-Jul-05 06:00N 39°51' W 075°16'0 0.0
2017-Jul-05 05:30N 39°51' W 075°16'0 0.0
2017-Jul-05 05:00N 39°51' W 075°16'0 0.5
2017-Jul-05 04:30N 39°51' W 075°17'2 4.1
2017-Jul-05 04:00N 39°51' W 075°19'3 5.3
2017-Jul-05 03:31N 39°50' W 075°22'4 7.6
2017-Jul-05 03:00N 39°48' W 075°26'5 9.4
2017-Jul-05 02:30N 39°44' W 075°30'510.0
2017-Jul-05 02:00N 39°39' W 075°33'4 9.0
2017-Jul-05 01:31N 39°35' W 075°33'510.7
2017-Jul-05 01:01N 39°29' W 075°34'510.5
2017-Jul-05 00:30N 39°25' W 075°31'611.7
2017-Jul-05 00:00N 39°20' W 075°26'612.2
2017-Jul-04 23:31N 39°16' W 075°20'713.2
2017-Jul-04 23:00N 39°10' W 075°16'613.0
2017-Jul-04 22:30N 39°05' W 075°11'713.4
2017-Jul-04 22:00N 38°59' W 075°08'713.5
2017-Jul-04 21:30N 38°53' W 075°04'510.0
2017-Jul-04 21:00N 38°48' W 075°02'22 8.5
2017-Jul-04 18:22N 38°31' W 074°42'4 9.9
2017-Jul-04 17:58N 38°29' W 074°39'2 4.2
2017-Jul-04 17:26N 38°29' W 074°36'0 0.2
2017-Jul-04 16:59N 38°29' W 074°36'0 0.0
2017-Jul-04 13:05N 38°29' W 074°36'0 0.0
2017-Jul-04 12:59N 38°29' W 074°36'0 0.0
2017-Jul-04 12:23N 38°29' W 074°36'0 0.1
2017-Jul-04 11:59N 38°29' W 074°36'0 0.2
2017-Jul-04 11:29N 38°29' W 074°36'0 0.0
2017-Jul-04 10:53N 38°29' W 074°36'0 0.0
2017-Jul-04 10:29N 38°29' W 074°36'0 0.1
2017-Jul-04 09:59N 38°29' W 074°36'0 0.0
2017-Jul-04 09:29N 38°29' W 074°36'0 0.0
2017-Jul-04 08:59N 38°29' W 074°36'0 0.0
2017-Jul-04 08:29N 38°29' W 074°36'0 0.0
2017-Jul-04 07:59N 38°29' W 074°36'0 0.1
2017-Jul-04 07:29N 38°29' W 074°36'0 0.9
2017-Jul-04 07:01N 38°29' W 074°36'3 5.3
2017-Jul-04 06:30N 38°28' W 074°33'510.4
2017-Jul-04 06:00N 38°25' W 074°28'612.9
2017-Jul-04 05:30N 38°20' W 074°23'713.1
2017-Jul-04 05:00N 38°15' W 074°17'  

Dump ship's entire track history